createdAt,value
2022-10-26T00:14:17.897Z,14.23
2022-10-26T00:29:34.966Z,14.12
2022-10-26T00:44:51.846Z,14.07
2022-10-26T01:00:07.857Z,14.07
2022-10-26T01:15:23.781Z,14.22
2022-10-26T01:30:39.767Z,14.56
2022-10-26T01:45:56.749Z,14.99
2022-10-26T02:01:13.758Z,14.77
2022-10-26T02:16:30.683Z,14.59
2022-10-26T02:32:04.071Z,14.22
2022-10-26T02:47:04.610Z,14.25
2022-10-26T03:02:20.607Z,14.05
2022-10-26T03:17:37.560Z,13.78
2022-10-26T03:33:08.347Z,13.76
2022-10-26T03:48:13.574Z,13.62
2022-10-26T04:03:29.487Z,13.73
2022-10-26T04:18:45.508Z,13.56
2022-10-26T04:34:02.466Z,13.08
2022-10-26T04:49:18.454Z,12.9
2022-10-26T05:04:35.402Z,12.55
2022-10-26T05:19:52.397Z,12.59
2022-10-26T05:35:09.339Z,12.39
2022-10-26T05:50:25.381Z,12.29
2022-10-26T06:05:41.323Z,12.25
2022-10-26T06:20:57.311Z,12.27
2022-10-26T06:36:14.266Z,12.09
2022-10-26T06:51:31.247Z,12.19
2022-10-26T07:06:48.232Z,13
2022-10-26T07:22:05.206Z,14.06
2022-10-26T07:37:22.177Z,14.77
2022-10-26T07:52:38.140Z,15.32
2022-10-26T08:07:54.113Z,15.95
2022-10-26T08:23:10.043Z,16.22
2022-10-26T08:38:27.074Z,16.55
2022-10-26T08:53:43.980Z,17.09
2022-10-26T09:09:00.980Z,17.46
2022-10-26T09:24:16.920Z,17.77
2022-10-26T09:39:33.940Z,18.06
2022-10-26T09:54:49.861Z,18.15
2022-10-26T10:10:05.865Z,18.75
2022-10-26T10:25:21.851Z,19.19
2022-10-26T10:40:39.795Z,19.72
2022-10-26T10:55:56.814Z,20.22
2022-10-26T11:11:13.831Z,20.58
2022-10-26T11:26:29.686Z,20.87
2022-10-26T11:41:46.687Z,21.42
2022-10-26T11:57:02.617Z,22.1
2022-10-26T12:12:18.612Z,22.06
2022-10-26T12:27:35.574Z,22.1
2022-10-26T12:42:53.561Z,22.26
2022-10-26T12:58:10.516Z,22.51
2022-10-26T13:13:26.459Z,23.64
2022-10-26T13:28:42.450Z,24.42
2022-10-26T13:43:59.383Z,24.55
2022-10-26T13:59:15.401Z,24.7
2022-10-26T14:14:31.338Z,24.92
2022-10-26T14:30:03.616Z,25.58
2022-10-26T14:45:06.393Z,24.29
2022-10-26T15:00:23.220Z,23.45
2022-10-26T15:15:39.863Z,22.41
2022-10-26T15:30:57.217Z,21.48
2022-10-26T15:46:12.129Z,20.98
2022-10-26T16:01:28.304Z,20.37
2022-10-26T16:16:44.075Z,20.08
2022-10-26T16:32:01.040Z,19.79
2022-10-26T16:47:22.070Z,19.66
2022-10-26T17:02:36.082Z,19.51
2022-10-26T17:17:51.952Z,19.3
2022-10-26T17:33:07.916Z,19.14
2022-10-26T17:48:24.936Z,19.08
2022-10-26T18:03:40.848Z,18.92
2022-10-26T18:18:57.853Z,18.76
2022-10-26T18:34:14.797Z,18.47
2022-10-26T18:49:32.806Z,18.25
2022-10-26T19:04:49.743Z,18
2022-10-26T19:20:05.747Z,17.77
2022-10-26T19:35:21.700Z,17.39
2022-10-26T19:50:38.684Z,17.18
2022-10-26T20:05:54.664Z,16.87
2022-10-26T20:21:11.627Z,16.64
2022-10-26T20:36:28.594Z,16.37
2022-10-26T20:52:02.695Z,16.1
2022-10-26T21:07:01.562Z,15.86
2022-10-26T21:22:17.503Z,15.66
2022-10-26T21:37:33.486Z,15.41
2022-10-26T21:52:50.731Z,15.15
2022-10-26T22:08:06.441Z,15.02
2022-10-26T22:23:23.418Z,14.79
2022-10-26T22:38:36.453Z,14.64
2022-10-26T22:53:52.298Z,14.44
2022-10-26T23:09:09.314Z,14.28
2022-10-26T23:24:26.256Z,14.09
2022-10-26T23:39:44.227Z,13.92
2022-10-26T23:40:25.100Z,13.92
2022-10-26T23:55:01.226Z,13.75
